createdAt,value
2023-01-11T00:00:29.010Z,98768.81
2023-01-11T00:03:01.853Z,98769.06
2023-01-11T00:05:32.701Z,98767.03
2023-01-11T00:08:03.541Z,98762.44
2023-01-11T00:10:35.085Z,98763.47
2023-01-11T00:13:05.781Z,98771.47
2023-01-11T00:15:39.568Z,98766.25
2023-01-11T00:18:11.054Z,98761.19
2023-01-11T00:20:43.362Z,98754.50
2023-01-11T00:23:15.289Z,98754.94
2023-01-11T00:25:46.772Z,98750.84
2023-01-11T00:28:18.337Z,98765.91
2023-01-11T00:30:51.629Z,98756.97
2023-01-11T00:33:22.778Z,98755.00
2023-01-11T00:35:54.531Z,98771.41
2023-01-11T00:38:44.536Z,98766.31
2023-01-11T00:41:35.556Z,98770.06
2023-01-11T00:44:25.787Z,98768.34
2023-01-11T00:47:14.665Z,98767.22
2023-01-11T00:49:45.939Z,98772.94
2023-01-11T00:52:16.885Z,98773.38
2023-01-11T00:54:47.914Z,98772.00
2023-01-11T00:57:19.141Z,98769.53
2023-01-11T00:59:50.294Z,98763.38
2023-01-11T01:02:21.363Z,98753.72
2023-01-11T01:04:52.670Z,98757.88
2023-01-11T01:07:23.645Z,98747.28
2023-01-11T01:09:54.830Z,98761.03
2023-01-11T01:12:44.296Z,98765.63
2023-01-11T01:15:15.639Z,98758.34
2023-01-11T01:17:46.802Z,98760.81
2023-01-11T01:20:18.083Z,98758.97
2023-01-11T01:22:50.159Z,98770.38
2023-01-11T01:25:21.230Z,98768.09
2023-01-11T01:27:52.438Z,98759.34
2023-01-11T01:30:23.720Z,98770.31
2023-01-11T01:32:55.441Z,98769.94
2023-01-11T01:35:26.587Z,98769.00
2023-01-11T01:37:58.031Z,98766.31
2023-01-11T01:40:29.017Z,98766.81
2023-01-11T01:43:00.331Z,98762.66
2023-01-11T01:45:31.496Z,98763.72
2023-01-11T01:48:04.357Z,98758.47
2023-01-11T01:50:57.217Z,98756.19
2023-01-11T01:53:33.214Z,98760.06
2023-01-11T01:56:07.509Z,98760.34
2023-01-11T01:58:44.608Z,98760.66
2023-01-11T02:01:34.592Z,98758.22
2023-01-11T02:04:22.765Z,98752.34
2023-01-11T02:06:59.748Z,98762.09
2023-01-11T02:09:38.818Z,98752.59
2023-01-11T02:12:10.485Z,98756.53
2023-01-11T02:14:43.386Z,98762.53
2023-01-11T02:17:34.411Z,98765.00
2023-01-11T02:20:11.305Z,98767.78
2023-01-11T02:22:48.646Z,98776.19
2023-01-11T02:25:37.614Z,98780.81
2023-01-11T02:28:23.779Z,98792.41
2023-01-11T02:31:13.377Z,98799.94
2023-01-11T02:34:07.732Z,98801.59
2023-01-11T02:36:54.757Z,98802.56
2023-01-11T02:39:53.529Z,98802.34
2023-01-11T02:42:52.102Z,98803.72
2023-01-11T02:45:31.896Z,98812.03
2023-01-11T02:48:46.255Z,98816.69
2023-01-11T02:51:35.353Z,98826.41
2023-01-11T02:54:11.342Z,98829.00
2023-01-11T02:56:45.668Z,98829.31
2023-01-11T02:59:20.933Z,98828.13
2023-01-11T03:01:54.665Z,98829.31
2023-01-11T03:04:31.267Z,98827.94
2023-01-11T03:07:28.996Z,98828.50
2023-01-11T03:10:13.538Z,98831.56
2023-01-11T03:13:05.875Z,98834.97
2023-01-11T03:15:59.654Z,98831.06
2023-01-11T03:18:48.683Z,98845.28
2023-01-11T03:21:26.507Z,98848.09
2023-01-11T03:24:12.619Z,98842.88
2023-01-11T03:27:04.911Z,98847.97
2023-01-11T03:29:53.202Z,98854.16
2023-01-11T03:32:45.820Z,98861.44
2023-01-11T03:35:34.856Z,98854.59
2023-01-11T03:38:14.763Z,98863.22
2023-01-11T03:40:50.394Z,98866.63
2023-01-11T03:43:23.780Z,98855.72
2023-01-11T03:46:23.897Z,98863.22
2023-01-11T03:49:17.209Z,98866.88
2023-01-11T03:51:48.855Z,98870.97
2023-01-11T03:54:26.322Z,98874.28
2023-01-11T03:57:25.701Z,98875.88
2023-01-11T03:59:56.930Z,98873.25
2023-01-11T04:02:29.923Z,98875.06
2023-01-11T04:05:01.780Z,98881.88
2023-01-11T04:07:33.284Z,98883.69
2023-01-11T04:10:04.392Z,98885.72
2023-01-11T04:12:35.516Z,98891.44
2023-01-11T04:15:07.336Z,98884.59
2023-01-11T04:17:37.627Z,98887.47
2023-01-11T04:20:10.086Z,98893.16
2023-01-11T04:22:41.179Z,98898.97
2023-01-11T04:25:12.352Z,98901.91
2023-01-11T04:27:43.542Z,98904.44
2023-01-11T04:30:14.892Z,98906.91
2023-01-11T04:32:46.184Z,98910.66
2023-01-11T04:35:18.164Z,98915.38
2023-01-11T04:37:49.534Z,98911.94
2023-01-11T04:40:20.116Z,98911.50
2023-01-11T04:42:51.432Z,98917.06
2023-01-11T04:45:23.284Z,98918.19
2023-01-11T04:47:58.004Z,98919.34
2023-01-11T04:50:29.357Z,98923.88
2023-01-11T04:53:00.926Z,98920.22
2023-01-11T04:55:31.815Z,98923.88
2023-01-11T04:58:02.764Z,98924.53
2023-01-11T05:00:33.831Z,98921.34
2023-01-11T05:03:05.317Z,98922.38
2023-01-11T05:05:36.387Z,98926.25
2023-01-11T05:08:07.604Z,98925.00
2023-01-11T05:10:38.686Z,98918.16
2023-01-11T05:13:09.837Z,98919.41
2023-01-11T05:15:41.042Z,98922.81
2023-01-11T05:18:12.085Z,98925.44
2023-01-11T05:20:43.073Z,98926.59
2023-01-11T05:23:14.142Z,98930.78
2023-01-11T05:25:45.596Z,98931.34
2023-01-11T05:28:16.515Z,98925.91
2023-01-11T05:30:54.682Z,98930.03
2023-01-11T05:33:25.827Z,98929.16
2023-01-11T05:36:00.537Z,98936.53
2023-01-11T05:38:32.045Z,98933.81
2023-01-11T05:41:05.499Z,98942.38
2023-01-11T05:43:56.905Z,98946.31
2023-01-11T05:46:28.541Z,98951.72
2023-01-11T05:49:02.768Z,98949.69
2023-01-11T05:51:34.548Z,98950.81
2023-01-11T05:54:05.402Z,98959.25
2023-01-11T05:56:36.882Z,98949.81
2023-01-11T05:59:08.506Z,98955.72
2023-01-11T06:01:40.166Z,98960.63
2023-01-11T06:04:11.634Z,98963.56
2023-01-11T06:06:42.882Z,98974.84
2023-01-11T06:09:13.688Z,98982.91
2023-01-11T06:11:44.832Z,98982.69
2023-01-11T06:14:16.284Z,98999.31
2023-01-11T06:16:47.405Z,99002.72
2023-01-11T06:19:18.426Z,99015.09
2023-01-11T06:21:49.380Z,99007.56
2023-01-11T06:24:20.373Z,99013.50
2023-01-11T06:26:53.922Z,99016.81
2023-01-11T06:29:25.325Z,99004.03
2023-01-11T06:31:56.203Z,99020.19
2023-01-11T06:34:27.156Z,99028.72
2023-01-11T06:36:58.927Z,99031.63
2023-01-11T06:39:30.037Z,99032.91
2023-01-11T06:42:01.219Z,99035.06
2023-01-11T06:44:32.367Z,99049.94
2023-01-11T06:47:03.679Z,99052.19
2023-01-11T06:49:34.614Z,99060.19
2023-01-11T06:52:05.931Z,99061.97
2023-01-11T06:54:37.311Z,99067.19
2023-01-11T06:57:08.444Z,99076.09
2023-01-11T06:59:41.022Z,99073.50
2023-01-11T07:02:13.221Z,99078.63
2023-01-11T07:04:44.252Z,99081.72
2023-01-11T07:07:15.621Z,99082.91
2023-01-11T07:09:46.735Z,99085.38
2023-01-11T07:12:17.917Z,99089.69
2023-01-11T07:14:49.346Z,99097.25
2023-01-11T07:17:20.285Z,99097.06
2023-01-11T07:19:51.178Z,99107.13
2023-01-11T07:22:23.972Z,99107.44
2023-01-11T07:24:55.209Z,99107.16
2023-01-11T07:27:26.423Z,99113.09
2023-01-11T07:29:57.400Z,99117.75
2023-01-11T07:32:29.629Z,99111.38
2023-01-11T07:35:00.796Z,99117.13
2023-01-11T07:37:36.730Z,99123.06
2023-01-11T07:40:08.409Z,99129.31
2023-01-11T07:42:56.917Z,99129.03
2023-01-11T07:45:37.371Z,99136.88
2023-01-11T07:48:16.063Z,99138.47
2023-01-11T07:50:47.881Z,99135.78
2023-01-11T07:53:20.456Z,99142.81
2023-01-11T07:55:51.964Z,99140.41
2023-01-11T07:58:23.038Z,99142.53
2023-01-11T08:00:54.121Z,99146.38
2023-01-11T08:03:25.486Z,99154.38
2023-01-11T08:05:56.580Z,99163.66
2023-01-11T08:08:29.378Z,99167.38
2023-01-11T08:11:18.751Z,99173.63
2023-01-11T08:14:07.648Z,99181.16
2023-01-11T08:16:38.902Z,99183.25
2023-01-11T08:19:10.629Z,99196.88
2023-01-11T08:21:42.525Z,99193.19
2023-01-11T08:24:14.247Z,99201.19
2023-01-11T08:26:45.790Z,99213.69
2023-01-11T08:29:17.100Z,99213.22
2023-01-11T08:31:48.643Z,99225.22
2023-01-11T08:34:19.839Z,99226.38
2023-01-11T08:36:51.158Z,99225.53
2023-01-11T08:39:22.384Z,99230.03
2023-01-11T08:41:53.831Z,99228.94
2023-01-11T08:44:33.632Z,99226.53
2023-01-11T08:47:05.566Z,99235.31
2023-01-11T08:49:36.860Z,99249.09
2023-01-11T08:52:08.656Z,99254.88
2023-01-11T08:54:39.133Z,99260.66
2023-01-11T08:57:10.418Z,99264.19
2023-01-11T08:59:41.406Z,99263.53
2023-01-11T09:02:14.743Z,99272.00
2023-01-11T09:04:45.830Z,99275.88
2023-01-11T09:07:16.907Z,99280.84
2023-01-11T09:09:49.589Z,99285.78
2023-01-11T09:12:21.657Z,99294.59
2023-01-11T09:14:52.732Z,99294.91
2023-01-11T09:17:23.816Z,99300.22
2023-01-11T09:19:54.895Z,99303.25
2023-01-11T09:22:26.206Z,99311.72
2023-01-11T09:25:00.413Z,99324.56
2023-01-11T09:27:32.969Z,99331.13
2023-01-11T09:30:04.294Z,99329.03
2023-01-11T09:32:35.427Z,99336.25
2023-01-11T09:35:07.480Z,99333.34
2023-01-11T09:37:42.961Z,99345.84
2023-01-11T09:40:25.464Z,99345.34
2023-01-11T09:43:02.253Z,99351.59
2023-01-11T09:45:34.415Z,99361.34
2023-01-11T09:48:17.014Z,99360.75
2023-01-11T09:50:50.515Z,99359.09
2023-01-11T09:53:29.608Z,99364.09
2023-01-11T09:56:03.901Z,99372.25
2023-01-11T09:58:51.298Z,99370.00
2023-01-11T10:01:25.476Z,99381.69
2023-01-11T10:04:07.790Z,99377.38
2023-01-11T10:06:45.983Z,99387.44
2023-01-11T10:18:23.219Z,99398.97
2023-01-11T10:19:05.291Z,99401.38
2023-01-11T10:21:43.403Z,99391.75
2023-01-11T10:24:26.511Z,99403.59
2023-01-11T10:27:00.396Z,99412.41
2023-01-11T10:30:15.018Z,99406.44
2023-01-11T10:32:47.662Z,99420.69
2023-01-11T10:35:49.233Z,99415.53
2023-01-11T10:38:42.797Z,99419.88
2023-01-11T10:41:27.492Z,99417.94
2023-01-11T10:44:20.616Z,99424.53
2023-01-11T10:46:54.748Z,99412.19
2023-01-11T10:49:35.713Z,99418.41
2023-01-11T10:52:36.448Z,99428.81
2023-01-11T10:55:16.096Z,99424.63
2023-01-11T10:58:25.305Z,99431.19
2023-01-11T11:01:10.253Z,99440.78
2023-01-11T11:04:19.564Z,99444.63
2023-01-11T11:07:07.719Z,99448.28
2023-01-11T11:09:47.462Z,99451.81
2023-01-11T11:12:33.487Z,99456.78
2023-01-11T11:15:10.784Z,99452.94
2023-01-11T11:17:43.521Z,99453.13
2023-01-11T11:20:23.425Z,99462.72
2023-01-11T11:22:56.398Z,99462.53
2023-01-11T11:25:50.264Z,99457.41
2023-01-11T11:28:33.461Z,99465.78
2023-01-11T11:31:09.859Z,99468.63
2023-01-11T11:33:42.152Z,99468.00
2023-01-11T11:36:15.245Z,99476.47
2023-01-11T11:39:10.925Z,99478.09
2023-01-11T11:41:59.845Z,99481.56
2023-01-11T11:44:37.245Z,99483.53
2023-01-11T11:55:55.362Z,99501.09
2023-01-11T11:58:27.619Z,99507.53
2023-01-11T12:00:58.579Z,99513.09
2023-01-11T12:03:33.743Z,99521.25
2023-01-11T12:06:06.647Z,99519.53
2023-01-11T12:08:38.824Z,99522.06
2023-01-11T12:11:16.121Z,99523.69
2023-01-11T12:14:20.083Z,99530.88
2023-01-11T12:16:51.455Z,99530.59
2023-01-11T12:19:37.478Z,99536.97
2023-01-11T12:22:20.279Z,99538.88
2023-01-11T12:25:17.060Z,99540.19
2023-01-11T12:28:02.983Z,99541.00
2023-01-11T12:30:36.615Z,99542.22
2023-01-11T12:33:31.601Z,99539.31
2023-01-11T12:36:11.845Z,99546.50
2023-01-11T12:38:45.688Z,99552.06
2023-01-11T12:41:22.443Z,99553.47
2023-01-11T12:44:06.958Z,99555.91
2023-01-11T12:46:59.315Z,99557.31
2023-01-11T12:49:48.424Z,99561.16
2023-01-11T12:52:51.170Z,99564.06
2023-01-11T12:55:41.465Z,99561.66
2023-01-11T12:58:35.793Z,99563.06
2023-01-11T13:01:22.241Z,99562.75
2023-01-11T13:04:25.642Z,99568.50
2023-01-11T13:07:18.082Z,99572.88
2023-01-11T13:10:07.272Z,99568.09
2023-01-11T13:13:12.537Z,99576.06
2023-01-11T13:15:59.753Z,99573.47
2023-01-11T13:19:00.773Z,99571.09
2023-01-11T13:21:37.793Z,99573.16
2023-01-11T13:24:15.128Z,99580.38
2023-01-11T13:26:50.575Z,99577.66
2023-01-11T13:29:25.237Z,99567.09
2023-01-11T13:31:57.818Z,99570.28
2023-01-11T13:34:35.048Z,99571.72
2023-01-11T13:37:21.107Z,99579.25
2023-01-11T13:40:20.026Z,99582.91
2023-01-11T13:42:57.698Z,99580.97
2023-01-11T13:45:35.898Z,99575.69
2023-01-11T13:48:16.328Z,99573.94
2023-01-11T13:50:57.171Z,99575.47
2023-01-11T13:53:59.533Z,99582.84
2023-01-11T13:57:00.813Z,99578.78
2023-01-11T13:59:47.065Z,99577.47
2023-01-11T14:02:48.529Z,99583.69
2023-01-11T14:05:22.914Z,99593.47
2023-01-11T14:08:02.119Z,99589.13
2023-01-11T14:10:41.705Z,99585.69
2023-01-11T14:13:50.637Z,99591.25
2023-01-11T14:16:26.777Z,99591.44
2023-01-11T14:19:00.821Z,99592.84
2023-01-11T14:21:57.014Z,99599.41
2023-01-11T14:24:30.015Z,99591.25
2023-01-11T14:27:22.344Z,99601.13
2023-01-11T14:29:53.469Z,99610.28
2023-01-11T14:32:24.668Z,99610.00
2023-01-11T14:35:15.453Z,99606.56
2023-01-11T14:38:23.299Z,99617.16
2023-01-11T14:40:54.564Z,99615.22
2023-01-11T14:43:41.207Z,99619.25
2023-01-11T14:46:17.305Z,99619.88
2023-01-11T14:49:25.231Z,99619.50
2023-01-11T14:52:00.670Z,99620.81
2023-01-11T14:54:42.645Z,99631.06
2023-01-11T14:57:33.065Z,99633.66
2023-01-11T15:00:04.130Z,99638.91
2023-01-11T15:02:35.350Z,99640.09
2023-01-11T15:05:06.733Z,99649.34
2023-01-11T15:07:39.996Z,99653.00
2023-01-11T15:10:32.207Z,99654.75
2023-01-11T15:13:08.299Z,99651.13
2023-01-11T15:15:57.176Z,99663.78
2023-01-11T15:18:29.004Z,99669.59
2023-01-11T15:21:08.081Z,99671.53
2023-01-11T15:23:41.044Z,99669.41
2023-01-11T15:26:12.445Z,99679.31
2023-01-11T15:28:46.869Z,99688.91
2023-01-11T15:31:45.465Z,99692.22
2023-01-11T15:34:21.311Z,99695.25
2023-01-11T15:36:59.985Z,99707.94
2023-01-11T15:39:38.747Z,99709.34
2023-01-11T15:42:47.417Z,99718.06
2023-01-11T15:46:04.287Z,99725.75
2023-01-11T15:48:48.203Z,99724.84
2023-01-11T15:51:32.219Z,99728.28
2023-01-11T15:54:39.568Z,99729.22
2023-01-11T15:57:41.237Z,99729.78
2023-01-11T16:00:21.616Z,99731.91
2023-01-11T16:03:10.602Z,99739.66
2023-01-11T16:05:45.556Z,99742.81
2023-01-11T16:08:42.141Z,99749.66
2023-01-11T16:11:54.018Z,99746.13
2023-01-11T16:14:38.458Z,99756.69
2023-01-11T16:17:17.883Z,99769.59
2023-01-11T16:19:58.430Z,99773.63
2023-01-11T16:22:30.708Z,99775.72
2023-01-11T16:25:02.884Z,99783.47
2023-01-11T16:27:36.085Z,99786.78
2023-01-11T16:30:08.013Z,99797.84
2023-01-11T16:32:39.083Z,99802.00
2023-01-11T16:35:27.176Z,99809.34
2023-01-11T16:38:04.006Z,99814.84
2023-01-11T16:40:44.258Z,99818.72
2023-01-11T16:43:25.065Z,99828.06
2023-01-11T16:45:59.074Z,99835.72
2023-01-11T16:48:32.303Z,99848.69
2023-01-11T16:51:12.883Z,99854.28
2023-01-11T16:53:46.062Z,99852.91
2023-01-11T16:56:20.166Z,99856.72
2023-01-11T16:59:20.668Z,99861.13
2023-01-11T17:02:04.871Z,99868.75
2023-01-11T17:04:36.993Z,99877.59
2023-01-11T17:07:27.473Z,99880.75
2023-01-11T17:10:24.835Z,99886.47
2023-01-11T17:13:38.535Z,99894.59
2023-01-11T17:16:16.257Z,99906.09
2023-01-11T17:18:48.335Z,99898.72
2023-01-11T17:21:18.528Z,99909.59
2023-01-11T17:23:51.530Z,99924.69
2023-01-11T17:26:25.827Z,99928.47
2023-01-11T17:28:58.789Z,99938.56
2023-01-11T17:31:35.071Z,99933.41
2023-01-11T17:34:25.871Z,99930.06
2023-01-11T17:36:57.593Z,99943.03
2023-01-11T17:39:34.150Z,99951.72
2023-01-11T17:42:25.062Z,99948.38
2023-01-11T17:45:14.750Z,99952.88
2023-01-11T17:47:49.060Z,99960.50
2023-01-11T17:50:29.391Z,99969.19
2023-01-11T17:53:28.919Z,99975.72
2023-01-11T17:56:04.415Z,99975.63
2023-01-11T17:58:37.482Z,99984.72
2023-01-11T18:01:19.352Z,99988.69
2023-01-11T18:03:52.083Z,99993.03
2023-01-11T18:06:45.334Z,99994.63
2023-01-11T18:09:30.784Z,100001.16
2023-01-11T18:12:17.100Z,100007.72
2023-01-11T18:14:54.566Z,100009.25
2023-01-11T18:17:38.084Z,100014.84
2023-01-11T18:20:18.207Z,100023.34
2023-01-11T18:23:28.412Z,100023.34
2023-01-11T18:26:27.181Z,100029.94
2023-01-11T18:28:58.088Z,100033.25
2023-01-11T18:31:29.136Z,100039.47
2023-01-11T18:34:00.498Z,100052.50
2023-01-11T18:36:31.376Z,100060.41
2023-01-11T18:39:03.366Z,100066.72
2023-01-11T18:41:52.463Z,100071.28
2023-01-11T18:44:23.362Z,100074.66
2023-01-11T18:46:54.763Z,100087.59
2023-01-11T18:49:25.600Z,100097.16
2023-01-11T18:51:56.523Z,100098.50
2023-01-11T18:54:28.138Z,100110.97
2023-01-11T18:57:06.239Z,100124.66
2023-01-11T18:59:38.570Z,100126.06
2023-01-11T19:04:57.751Z,100135.53
2023-01-11T19:07:29.104Z,100143.84
2023-01-11T19:10:00.829Z,100144.63
2023-01-11T19:12:33.623Z,100145.66
2023-01-11T19:15:04.749Z,100154.25
2023-01-11T19:17:35.995Z,100160.41
2023-01-11T19:20:10.503Z,100163.72
2023-01-11T19:22:42.197Z,100164.56
2023-01-11T19:25:13.315Z,100178.09
2023-01-11T19:27:44.313Z,100185.34
2023-01-11T19:30:16.023Z,100193.84
2023-01-11T19:32:51.805Z,100199.50
2023-01-11T19:35:25.083Z,100200.84
2023-01-11T19:37:56.418Z,100217.94
2023-01-11T19:40:27.519Z,100214.19
2023-01-11T19:43:00.439Z,100221.41
2023-01-11T19:45:32.873Z,100227.94
2023-01-11T19:48:04.215Z,100236.56
2023-01-11T19:50:35.530Z,100237.59
2023-01-11T19:53:06.612Z,100246.50
2023-01-11T19:55:39.407Z,100243.25
2023-01-11T19:58:11.924Z,100258.53
2023-01-11T20:00:46.571Z,100255.06
2023-01-11T20:03:18.396Z,100256.84
2023-01-11T20:05:49.734Z,100259.81
2023-01-11T20:08:20.761Z,100264.78
2023-01-11T20:10:52.713Z,100274.59
2023-01-11T20:13:23.986Z,100270.41
2023-01-11T20:15:55.105Z,100282.31
2023-01-11T20:18:25.948Z,100292.28
2023-01-11T20:20:58.004Z,100293.47
2023-01-11T20:23:28.984Z,100305.41
2023-01-11T20:26:07.656Z,100298.53
2023-01-11T20:28:38.565Z,100310.13
2023-01-11T20:31:09.787Z,100308.13
2023-01-11T20:33:41.280Z,100314.94
2023-01-11T20:36:18.289Z,100319.06
2023-01-11T20:38:49.430Z,100331.44
2023-01-11T20:41:42.068Z,100331.78
2023-01-11T20:44:13.759Z,100339.53
2023-01-11T20:46:47.540Z,100339.00
2023-01-11T20:49:20.274Z,100342.03
2023-01-11T20:51:51.459Z,100341.66
2023-01-11T20:54:22.867Z,100343.00
2023-01-11T20:56:54.657Z,100353.06
2023-01-11T20:59:25.448Z,100347.78
2023-01-11T21:01:56.335Z,100350.84
2023-01-11T21:04:27.452Z,100361.31
2023-01-11T21:06:58.421Z,100360.06
2023-01-11T21:09:29.669Z,100365.69
2023-01-11T21:12:00.815Z,100367.41
2023-01-11T21:14:32.403Z,100360.50
2023-01-11T21:17:03.773Z,100376.16
2023-01-11T21:19:35.113Z,100384.34
2023-01-11T21:22:06.205Z,100386.47
2023-01-11T21:24:39.964Z,100389.59
2023-01-11T21:27:11.040Z,100402.31
2023-01-11T21:29:42.254Z,100395.56
2023-01-11T21:32:13.530Z,100401.72
2023-01-11T21:34:44.535Z,100405.56
2023-01-11T21:37:15.719Z,100409.00
2023-01-11T21:39:47.400Z,100409.72
2023-01-11T21:42:18.942Z,100416.72
2023-01-11T21:44:50.615Z,100414.28
2023-01-11T21:47:21.866Z,100399.50
2023-01-11T21:49:52.771Z,100410.50
2023-01-11T21:52:23.829Z,100422.16
2023-01-11T21:54:55.437Z,100420.69
2023-01-11T21:57:27.053Z,100429.81
2023-01-11T21:59:58.234Z,100440.66
2023-01-11T22:02:29.518Z,100441.59
2023-01-11T22:05:01.005Z,100444.13
2023-01-11T22:07:34.193Z,100441.00
2023-01-11T22:10:05.759Z,100454.34
2023-01-11T22:12:37.393Z,100450.56
2023-01-11T22:15:09.579Z,100462.16
2023-01-11T22:17:39.832Z,100455.44
2023-01-11T22:20:11.524Z,100468.31
2023-01-11T22:22:43.115Z,100462.50
2023-01-11T22:25:14.296Z,100465.25
2023-01-11T22:27:45.388Z,100466.00
2023-01-11T22:30:17.017Z,100468.63
2023-01-11T22:32:49.295Z,100471.78
2023-01-11T22:35:20.539Z,100471.72
2023-01-11T22:37:51.467Z,100475.78
2023-01-11T22:40:22.764Z,100482.84
2023-01-11T22:42:54.725Z,100475.91
2023-01-11T22:45:26.288Z,100482.03
2023-01-11T22:47:57.593Z,100476.28
2023-01-11T22:50:28.644Z,100484.59
2023-01-11T22:52:59.659Z,100489.91
2023-01-11T22:55:31.037Z,100488.13
2023-01-11T22:58:01.946Z,100488.22
2023-01-11T23:00:33.244Z,100491.25
2023-01-11T23:03:04.652Z,100495.28
2023-01-11T23:05:35.582Z,100502.34
2023-01-11T23:08:07.229Z,100496.59
2023-01-11T23:10:38.366Z,100513.63
2023-01-11T23:13:30.336Z,100519.88
2023-01-11T23:16:01.687Z,100523.75
2023-01-11T23:18:33.088Z,100522.44
2023-01-11T23:21:07.811Z,100536.13
2023-01-11T23:23:41.627Z,100537.16
2023-01-11T23:26:19.400Z,100540.94
2023-01-11T23:28:51.711Z,100544.22
2023-01-11T23:31:26.200Z,100551.06
2023-01-11T23:33:59.528Z,100552.75
2023-01-11T23:36:33.169Z,100554.38
2023-01-11T23:39:09.152Z,100556.59
2023-01-11T23:42:00.387Z,100561.31
2023-01-11T23:44:31.811Z,100559.00
2023-01-11T23:47:21.187Z,100560.88
2023-01-11T23:49:53.948Z,100567.28
2023-01-11T23:52:28.456Z,100571.34
2023-01-11T23:54:59.922Z,100573.03
2023-01-11T23:57:30.366Z,100572.00
